sensor_id;sensor_type;location;lat;lon;timestamp;temperature;humidity
21830;DHT22;11077;50.264;6.798;2023-04-16T00:00:49;5.60;99.90
21830;DHT22;11077;50.264;6.798;2023-04-16T00:03:17;5.60;99.90
21830;DHT22;11077;50.264;6.798;2023-04-16T00:05:45;5.60;99.90
21830;DHT22;11077;50.264;6.798;2023-04-16T00:08:12;5.60;99.90
21830;DHT22;11077;50.264;6.798;2023-04-16T00:10:41;5.60;99.90
21830;DHT22;11077;50.264;6.798;2023-04-16T00:13:08;5.50;99.90
21830;DHT22;11077;50.264;6.798;2023-04-16T00:15:35;5.50;99.90
21830;DHT22;11077;50.264;6.798;2023-04-16T00:18:02;5.50;99.90
21830;DHT22;11077;50.264;6.798;2023-04-16T00:20:31;5.50;99.90
21830;DHT22;11077;50.264;6.798;2023-04-16T00:22:58;5.50;99.90
21830;DHT22;11077;50.264;6.798;2023-04-16T00:25:25;5.50;99.90
21830;DHT22;11077;50.264;6.798;2023-04-16T00:27:52;5.50;99.90
21830;DHT22;11077;50.264;6.798;2023-04-16T00:30:20;5.50;99.90
21830;DHT22;11077;50.264;6.798;2023-04-16T00:32:47;5.50;99.90
21830;DHT22;11077;50.264;6.798;2023-04-16T00:35:14;5.50;99.90
21830;DHT22;11077;50.264;6.798;2023-04-16T00:37:42;5.50;99.90
21830;DHT22;11077;50.264;6.798;2023-04-16T00:40:10;5.50;99.90
21830;DHT22;11077;50.264;6.798;2023-04-16T00:42:37;5.50;99.90
21830;DHT22;11077;50.264;6.798;2023-04-16T00:45:06;5.50;99.90
21830;DHT22;11077;50.264;6.798;2023-04-16T00:47:33;5.40;99.90
21830;DHT22;11077;50.264;6.798;2023-04-16T00:50:01;5.40;99.90
21830;DHT22;11077;50.264;6.798;2023-04-16T00:52:30;5.40;99.90
21830;DHT22;11077;50.264;6.798;2023-04-16T00:55:00;5.40;99.90
21830;DHT22;11077;50.264;6.798;2023-04-16T00:57:27;5.40;99.90
21830;DHT22;11077;50.264;6.798;2023-04-16T00:59:55;5.40;99.90
21830;DHT22;11077;50.264;6.798;2023-04-16T01:02:22;5.40;99.90
21830;DHT22;11077;50.264;6.798;2023-04-16T01:04:50;5.40;99.90
21830;DHT22;11077;50.264;6.798;2023-04-16T01:07:17;5.40;99.90
21830;DHT22;11077;50.264;6.798;2023-04-16T01:09:44;5.40;99.90
21830;DHT22;11077;50.264;6.798;2023-04-16T01:12:13;5.40;99.90
21830;DHT22;11077;50.264;6.798;2023-04-16T01:14:40;5.40;99.90
21830;DHT22;11077;50.264;6.798;2023-04-16T01:17:07;5.40;99.90
21830;DHT22;11077;50.264;6.798;2023-04-16T01:19:34;5.40;99.90
21830;DHT22;11077;50.264;6.798;2023-04-16T01:22:03;5.40;99.90
21830;DHT22;11077;50.264;6.798;2023-04-16T01:24:31;5.40;99.90
21830;DHT22;11077;50.264;6.798;2023-04-16T01:26:58;5.50;99.90
21830;DHT22;11077;50.264;6.798;2023-04-16T01:29:28;5.40;99.90
21830;DHT22;11077;50.264;6.798;2023-04-16T01:31:57;5.40;99.90
21830;DHT22;11077;50.264;6.798;2023-04-16T01:34:26;5.40;99.90
21830;DHT22;11077;50.264;6.798;2023-04-16T01:36:54;5.40;99.90
21830;DHT22;11077;50.264;6.798;2023-04-16T01:39:22;5.40;99.90
21830;DHT22;11077;50.264;6.798;2023-04-16T01:41:49;5.40;99.90
21830;DHT22;11077;50.264;6.798;2023-04-16T01:44:16;5.40;99.90
21830;DHT22;11077;50.264;6.798;2023-04-16T01:46:45;5.40;99.90
21830;DHT22;11077;50.264;6.798;2023-04-16T01:49:12;5.30;99.90
21830;DHT22;11077;50.264;6.798;2023-04-16T01:51:40;5.30;99.90
21830;DHT22;11077;50.264;6.798;2023-04-16T01:54:07;5.30;99.90
21830;DHT22;11077;50.264;6.798;2023-04-16T01:56:36;5.40;99.90
21830;DHT22;11077;50.264;6.798;2023-04-16T01:59:03;5.40;99.90
21830;DHT22;11077;50.264;6.798;2023-04-16T02:01:37;5.30;99.90
21830;DHT22;11077;50.264;6.798;2023-04-16T02:04:04;5.40;99.90
21830;DHT22;11077;50.264;6.798;2023-04-16T02:06:32;5.40;99.90
21830;DHT22;11077;50.264;6.798;2023-04-16T02:09:01;5.40;99.90
21830;DHT22;11077;50.264;6.798;2023-04-16T02:11:28;5.40;99.90
21830;DHT22;11077;50.264;6.798;2023-04-16T02:13:57;5.30;99.90
21830;DHT22;11077;50.264;6.798;2023-04-16T02:16:25;5.40;99.90
21830;DHT22;11077;50.264;6.798;2023-04-16T02:18:57;5.40;99.90
21830;DHT22;11077;50.264;6.798;2023-04-16T02:21:27;5.40;99.90
21830;DHT22;11077;50.264;6.798;2023-04-16T02:23:55;5.40;99.90
21830;DHT22;11077;50.264;6.798;2023-04-16T02:26:26;5.30;99.90
21830;DHT22;11077;50.264;6.798;2023-04-16T02:28:59;5.30;99.90
21830;DHT22;11077;50.264;6.798;2023-04-16T02:31:34;5.30;99.90
21830;DHT22;11077;50.264;6.798;2023-04-16T02:34:03;5.30;99.90
21830;DHT22;11077;50.264;6.798;2023-04-16T02:36:30;5.30;99.90
21830;DHT22;11077;50.264;6.798;2023-04-16T02:38:58;5.30;99.90
21830;DHT22;11077;50.264;6.798;2023-04-16T02:41:28;5.30;99.90
21830;DHT22;11077;50.264;6.798;2023-04-16T02:43:55;5.30;99.90
21830;DHT22;11077;50.264;6.798;2023-04-16T02:46:24;5.30;99.90
21830;DHT22;11077;50.264;6.798;2023-04-16T02:48:51;5.30;99.90
21830;DHT22;11077;50.264;6.798;2023-04-16T02:51:18;5.30;99.90
21830;DHT22;11077;50.264;6.798;2023-04-16T02:53:46;5.30;99.90
21830;DHT22;11077;50.264;6.798;2023-04-16T02:56:13;5.30;99.90
21830;DHT22;11077;50.264;6.798;2023-04-16T02:58:41;5.30;99.90
21830;DHT22;11077;50.264;6.798;2023-04-16T03:01:08;5.30;99.90
21830;DHT22;11077;50.264;6.798;2023-04-16T03:03:36;5.30;99.90
21830;DHT22;11077;50.264;6.798;2023-04-16T03:06:04;5.30;99.90
21830;DHT22;11077;50.264;6.798;2023-04-16T03:08:31;5.30;99.90
21830;DHT22;11077;50.264;6.798;2023-04-16T03:10:58;5.30;99.90
21830;DHT22;11077;50.264;6.798;2023-04-16T03:13:26;5.30;99.90
21830;DHT22;11077;50.264;6.798;2023-04-16T03:15:53;5.30;99.90
21830;DHT22;11077;50.264;6.798;2023-04-16T03:18:21;5.30;99.90
21830;DHT22;11077;50.264;6.798;2023-04-16T03:20:52;5.30;99.90
21830;DHT22;11077;50.264;6.798;2023-04-16T03:23:19;5.30;99.90
21830;DHT22;11077;50.264;6.798;2023-04-16T03:25:46;5.20;99.90
21830;DHT22;11077;50.264;6.798;2023-04-16T03:28:16;5.30;99.90
21830;DHT22;11077;50.264;6.798;2023-04-16T03:30:49;5.30;99.90
21830;DHT22;11077;50.264;6.798;2023-04-16T03:33:17;5.30;99.90
21830;DHT22;11077;50.264;6.798;2023-04-16T03:35:44;5.30;99.90
21830;DHT22;11077;50.264;6.798;2023-04-16T03:38:14;5.30;99.90
21830;DHT22;11077;50.264;6.798;2023-04-16T03:40:41;5.30;99.90
21830;DHT22;11077;50.264;6.798;2023-04-16T03:43:08;5.30;99.90
21830;DHT22;11077;50.264;6.798;2023-04-16T03:45:43;5.30;99.90
21830;DHT22;11077;50.264;6.798;2023-04-16T03:48:11;5.30;99.90
21830;DHT22;11077;50.264;6.798;2023-04-16T03:50:39;5.30;99.90
21830;DHT22;11077;50.264;6.798;2023-04-16T03:53:08;5.30;99.90
21830;DHT22;11077;50.264;6.798;2023-04-16T03:55:37;5.20;99.90
21830;DHT22;11077;50.264;6.798;2023-04-16T03:58:04;5.20;99.90
21830;DHT22;11077;50.264;6.798;2023-04-16T04:00:32;5.30;99.90
21830;DHT22;11077;50.264;6.798;2023-04-16T04:03:06;5.30;99.90
21830;DHT22;11077;50.264;6.798;2023-04-16T04:05:35;5.30;99.90
21830;DHT22;11077;50.264;6.798;2023-04-16T04:08:04;5.30;99.90
21830;DHT22;11077;50.264;6.798;2023-04-16T04:10:32;5.30;99.90
21830;DHT22;11077;50.264;6.798;2023-04-16T04:13:03;5.30;99.90
21830;DHT22;11077;50.264;6.798;2023-04-16T04:15:35;5.30;99.90
21830;DHT22;11077;50.264;6.798;2023-04-16T04:18:02;5.30;99.90
21830;DHT22;11077;50.264;6.798;2023-04-16T04:20:30;5.30;99.90
21830;DHT22;11077;50.264;6.798;2023-04-16T04:22:58;5.30;99.90
21830;DHT22;11077;50.264;6.798;2023-04-16T04:25:26;5.30;99.90
21830;DHT22;11077;50.264;6.798;2023-04-16T04:27:53;5.30;99.90
21830;DHT22;11077;50.264;6.798;2023-04-16T04:30:22;5.30;99.90
21830;DHT22;11077;50.264;6.798;2023-04-16T04:32:49;5.30;99.90
21830;DHT22;11077;50.264;6.798;2023-04-16T04:35:17;5.30;99.90
21830;DHT22;11077;50.264;6.798;2023-04-16T04:37:44;5.30;99.90
21830;DHT22;11077;50.264;6.798;2023-04-16T04:40:17;5.30;99.90
21830;DHT22;11077;50.264;6.798;2023-04-16T04:42:45;5.40;99.90
21830;DHT22;11077;50.264;6.798;2023-04-16T04:45:12;5.30;99.90
21830;DHT22;11077;50.264;6.798;2023-04-16T04:47:42;5.30;99.90
21830;DHT22;11077;50.264;6.798;2023-04-16T04:50:10;5.30;99.90
21830;DHT22;11077;50.264;6.798;2023-04-16T04:52:37;5.30;99.90
21830;DHT22;11077;50.264;6.798;2023-04-16T04:55:06;5.40;99.90
21830;DHT22;11077;50.264;6.798;2023-04-16T04:57:34;5.30;99.90
21830;DHT22;11077;50.264;6.798;2023-04-16T05:00:02;5.40;99.90
21830;DHT22;11077;50.264;6.798;2023-04-16T05:02:38;5.30;99.90
21830;DHT22;11077;50.264;6.798;2023-04-16T05:05:07;5.30;99.90
21830;DHT22;11077;50.264;6.798;2023-04-16T05:07:35;5.30;99.90
21830;DHT22;11077;50.264;6.798;2023-04-16T05:10:02;5.40;99.90
21830;DHT22;11077;50.264;6.798;2023-04-16T05:12:29;5.30;99.90
21830;DHT22;11077;50.264;6.798;2023-04-16T05:14:56;5.40;99.90
21830;DHT22;11077;50.264;6.798;2023-04-16T05:17:23;5.40;99.90
21830;DHT22;11077;50.264;6.798;2023-04-16T05:19:51;5.40;99.90
21830;DHT22;11077;50.264;6.798;2023-04-16T05:22:20;5.40;99.90
21830;DHT22;11077;50.264;6.798;2023-04-16T05:24:47;5.40;99.90
21830;DHT22;11077;50.264;6.798;2023-04-16T05:27:14;5.40;99.90
21830;DHT22;11077;50.264;6.798;2023-04-16T05:29:41;5.30;99.90
21830;DHT22;11077;50.264;6.798;2023-04-16T05:32:08;5.40;99.90
21830;DHT22;11077;50.264;6.798;2023-04-16T05:34:35;5.40;99.90
21830;DHT22;11077;50.264;6.798;2023-04-16T05:37:02;5.40;99.90
21830;DHT22;11077;50.264;6.798;2023-04-16T05:39:31;5.40;99.90
21830;DHT22;11077;50.264;6.798;2023-04-16T05:41:58;5.40;99.90
21830;DHT22;11077;50.264;6.798;2023-04-16T05:44:26;5.40;99.90
21830;DHT22;11077;50.264;6.798;2023-04-16T05:46:53;5.40;99.90
21830;DHT22;11077;50.264;6.798;2023-04-16T05:49:20;5.40;99.90
21830;DHT22;11077;50.264;6.798;2023-04-16T05:51:48;5.40;99.90
21830;DHT22;11077;50.264;6.798;2023-04-16T05:54:15;5.40;99.90
21830;DHT22;11077;50.264;6.798;2023-04-16T05:56:44;5.40;99.90
21830;DHT22;11077;50.264;6.798;2023-04-16T05:59:11;5.40;99.90
21830;DHT22;11077;50.264;6.798;2023-04-16T06:01:38;5.40;99.90
21830;DHT22;11077;50.264;6.798;2023-04-16T06:04:05;5.40;99.90
21830;DHT22;11077;50.264;6.798;2023-04-16T06:06:33;5.40;99.90
21830;DHT22;11077;50.264;6.798;2023-04-16T06:09:02;5.40;99.90
21830;DHT22;11077;50.264;6.798;2023-04-16T06:11:29;5.40;99.90
21830;DHT22;11077;50.264;6.798;2023-04-16T06:13:58;5.40;99.90
21830;DHT22;11077;50.264;6.798;2023-04-16T06:16:25;5.50;99.90
21830;DHT22;11077;50.264;6.798;2023-04-16T06:18:52;5.50;99.90
21830;DHT22;11077;50.264;6.798;2023-04-16T06:21:19;5.50;99.90
21830;DHT22;11077;50.264;6.798;2023-04-16T06:23:46;5.50;99.90
21830;DHT22;11077;50.264;6.798;2023-04-16T06:26:13;5.50;99.90
21830;DHT22;11077;50.264;6.798;2023-04-16T06:28:41;5.50;99.90
21830;DHT22;11077;50.264;6.798;2023-04-16T06:31:09;5.50;99.90
21830;DHT22;11077;50.264;6.798;2023-04-16T06:33:36;5.60;99.90
21830;DHT22;11077;50.264;6.798;2023-04-16T06:36:04;5.60;99.90
21830;DHT22;11077;50.264;6.798;2023-04-16T06:38:31;5.60;99.90
21830;DHT22;11077;50.264;6.798;2023-04-16T06:40:58;5.60;99.90
21830;DHT22;11077;50.264;6.798;2023-04-16T06:43:25;5.60;99.90
21830;DHT22;11077;50.264;6.798;2023-04-16T06:45:54;5.60;99.90
21830;DHT22;11077;50.264;6.798;2023-04-16T06:48:23;5.60;99.90
21830;DHT22;11077;50.264;6.798;2023-04-16T06:50:51;5.60;99.90
21830;DHT22;11077;50.264;6.798;2023-04-16T06:53:19;5.60;99.90
21830;DHT22;11077;50.264;6.798;2023-04-16T06:55:46;5.60;99.90
21830;DHT22;11077;50.264;6.798;2023-04-16T06:58:13;5.70;99.90
21830;DHT22;11077;50.264;6.798;2023-04-16T07:00:41;5.70;99.90
21830;DHT22;11077;50.264;6.798;2023-04-16T07:03:08;5.70;99.90
21830;DHT22;11077;50.264;6.798;2023-04-16T07:05:37;5.70;99.90
21830;DHT22;11077;50.264;6.798;2023-04-16T07:08:04;5.80;99.90
21830;DHT22;11077;50.264;6.798;2023-04-16T07:10:31;5.80;99.90
21830;DHT22;11077;50.264;6.798;2023-04-16T07:12:59;5.80;99.90
21830;DHT22;11077;50.264;6.798;2023-04-16T07:15:27;5.80;99.90
21830;DHT22;11077;50.264;6.798;2023-04-16T07:17:54;5.80;99.90
21830;DHT22;11077;50.264;6.798;2023-04-16T07:20:21;5.80;99.90
21830;DHT22;11077;50.264;6.798;2023-04-16T07:22:50;5.90;99.90
21830;DHT22;11077;50.264;6.798;2023-04-16T07:25:17;5.90;99.90
21830;DHT22;11077;50.264;6.798;2023-04-16T07:27:45;5.90;99.90
21830;DHT22;11077;50.264;6.798;2023-04-16T07:30:12;6.00;99.90
21830;DHT22;11077;50.264;6.798;2023-04-16T07:32:39;5.90;99.90
21830;DHT22;11077;50.264;6.798;2023-04-16T07:35:07;6.00;99.90
21830;DHT22;11077;50.264;6.798;2023-04-16T07:37:35;6.00;99.90
21830;DHT22;11077;50.264;6.798;2023-04-16T07:40:04;6.00;99.90
21830;DHT22;11077;50.264;6.798;2023-04-16T07:42:31;6.00;99.90
21830;DHT22;11077;50.264;6.798;2023-04-16T07:44:59;5.90;99.90
21830;DHT22;11077;50.264;6.798;2023-04-16T07:47:26;6.00;99.90
21830;DHT22;11077;50.264;6.798;2023-04-16T07:49:53;6.10;99.90
21830;DHT22;11077;50.264;6.798;2023-04-16T07:52:21;6.10;99.90
21830;DHT22;11077;50.264;6.798;2023-04-16T07:57:26;6.20;99.90
21830;DHT22;11077;50.264;6.798;2023-04-16T07:59:53;6.20;99.90
21830;DHT22;11077;50.264;6.798;2023-04-16T08:02:20;6.20;99.90
21830;DHT22;11077;50.264;6.798;2023-04-16T08:04:47;6.20;99.90
21830;DHT22;11077;50.264;6.798;2023-04-16T08:07:15;6.20;99.90
21830;DHT22;11077;50.264;6.798;2023-04-16T08:09:49;6.20;99.90
21830;DHT22;11077;50.264;6.798;2023-04-16T08:12:17;6.20;99.90
21830;DHT22;11077;50.264;6.798;2023-04-16T08:14:47;6.20;99.90
21830;DHT22;11077;50.264;6.798;2023-04-16T08:17:14;6.20;99.90
21830;DHT22;11077;50.264;6.798;2023-04-16T08:19:42;6.30;99.90
21830;DHT22;11077;50.264;6.798;2023-04-16T08:22:10;6.30;99.90
21830;DHT22;11077;50.264;6.798;2023-04-16T08:24:38;6.30;99.90
21830;DHT22;11077;50.264;6.798;2023-04-16T08:27:05;6.30;99.90
21830;DHT22;11077;50.264;6.798;2023-04-16T08:29:32;6.30;99.90
21830;DHT22;11077;50.264;6.798;2023-04-16T08:32:01;6.30;99.90
21830;DHT22;11077;50.264;6.798;2023-04-16T08:34:28;6.30;99.90
21830;DHT22;11077;50.264;6.798;2023-04-16T08:36:55;6.30;99.90
21830;DHT22;11077;50.264;6.798;2023-04-16T08:39:22;6.30;99.90
21830;DHT22;11077;50.264;6.798;2023-04-16T08:41:51;6.40;99.90
21830;DHT22;11077;50.264;6.798;2023-04-16T08:44:22;6.40;99.90
21830;DHT22;11077;50.264;6.798;2023-04-16T08:46:52;6.50;99.90
21830;DHT22;11077;50.264;6.798;2023-04-16T08:49:23;6.50;99.90
21830;DHT22;11077;50.264;6.798;2023-04-16T08:51:52;6.50;99.90
21830;DHT22;11077;50.264;6.798;2023-04-16T08:54:30;6.50;99.90
21830;DHT22;11077;50.264;6.798;2023-04-16T08:56:58;6.50;99.90
21830;DHT22;11077;50.264;6.798;2023-04-16T08:59:26;6.60;99.90
21830;DHT22;11077;50.264;6.798;2023-04-16T09:01:56;6.60;99.90
21830;DHT22;11077;50.264;6.798;2023-04-16T09:04:27;6.60;99.90
21830;DHT22;11077;50.264;6.798;2023-04-16T09:06:55;6.60;99.90
21830;DHT22;11077;50.264;6.798;2023-04-16T09:09:22;6.60;99.90
21830;DHT22;11077;50.264;6.798;2023-04-16T09:11:51;6.60;99.90
21830;DHT22;11077;50.264;6.798;2023-04-16T09:14:19;6.60;99.90
21830;DHT22;11077;50.264;6.798;2023-04-16T09:16:47;6.70;99.90
21830;DHT22;11077;50.264;6.798;2023-04-16T09:19:14;6.60;99.90
21830;DHT22;11077;50.264;6.798;2023-04-16T09:21:45;6.60;99.90
21830;DHT22;11077;50.264;6.798;2023-04-16T09:24:13;6.60;99.90
21830;DHT22;11077;50.264;6.798;2023-04-16T09:26:40;6.70;99.90
21830;DHT22;11077;50.264;6.798;2023-04-16T09:29:08;6.80;99.90
21830;DHT22;11077;50.264;6.798;2023-04-16T09:31:36;6.80;99.90
21830;DHT22;11077;50.264;6.798;2023-04-16T09:34:05;6.90;99.90
21830;DHT22;11077;50.264;6.798;2023-04-16T09:36:34;6.90;99.90
21830;DHT22;11077;50.264;6.798;2023-04-16T09:39:03;7.00;99.90
21830;DHT22;11077;50.264;6.798;2023-04-16T09:41:32;7.00;99.90
21830;DHT22;11077;50.264;6.798;2023-04-16T09:44:01;7.00;99.90
21830;DHT22;11077;50.264;6.798;2023-04-16T09:46:30;7.00;99.90
21830;DHT22;11077;50.264;6.798;2023-04-16T09:48:57;7.10;99.90
21830;DHT22;11077;50.264;6.798;2023-04-16T09:51:36;7.10;99.90
21830;DHT22;11077;50.264;6.798;2023-04-16T09:54:05;7.10;99.90
21830;DHT22;11077;50.264;6.798;2023-04-16T09:56:32;7.10;99.90
21830;DHT22;11077;50.264;6.798;2023-04-16T09:58:59;7.10;99.90
21830;DHT22;11077;50.264;6.798;2023-04-16T10:01:26;7.10;99.90
21830;DHT22;11077;50.264;6.798;2023-04-16T10:03:55;7.20;99.90
21830;DHT22;11077;50.264;6.798;2023-04-16T10:06:23;7.20;99.90
21830;DHT22;11077;50.264;6.798;2023-04-16T10:08:52;7.20;99.90
21830;DHT22;11077;50.264;6.798;2023-04-16T10:11:24;7.20;99.90
21830;DHT22;11077;50.264;6.798;2023-04-16T10:13:52;7.20;99.90
21830;DHT22;11077;50.264;6.798;2023-04-16T10:16:21;7.20;99.90
21830;DHT22;11077;50.264;6.798;2023-04-16T10:18:48;7.30;99.90
21830;DHT22;11077;50.264;6.798;2023-04-16T10:21:15;7.40;99.90
21830;DHT22;11077;50.264;6.798;2023-04-16T10:23:43;7.40;99.90
21830;DHT22;11077;50.264;6.798;2023-04-16T10:26:11;7.40;99.90
21830;DHT22;11077;50.264;6.798;2023-04-16T10:28:39;7.40;99.90
21830;DHT22;11077;50.264;6.798;2023-04-16T10:31:07;7.40;99.90
21830;DHT22;11077;50.264;6.798;2023-04-16T10:33:36;7.50;99.90
21830;DHT22;11077;50.264;6.798;2023-04-16T10:36:10;7.50;99.90
21830;DHT22;11077;50.264;6.798;2023-04-16T10:38:38;7.50;99.90
21830;DHT22;11077;50.264;6.798;2023-04-16T10:41:06;7.50;99.90
21830;DHT22;11077;50.264;6.798;2023-04-16T10:43:40;7.50;99.90
21830;DHT22;11077;50.264;6.798;2023-04-16T10:46:21;7.60;99.90
21830;DHT22;11077;50.264;6.798;2023-04-16T10:48:49;7.60;99.90
21830;DHT22;11077;50.264;6.798;2023-04-16T10:51:25;7.60;99.90
21830;DHT22;11077;50.264;6.798;2023-04-16T10:53:53;7.70;99.90
21830;DHT22;11077;50.264;6.798;2023-04-16T10:56:22;7.70;99.90
21830;DHT22;11077;50.264;6.798;2023-04-16T10:58:52;7.70;99.90
21830;DHT22;11077;50.264;6.798;2023-04-16T11:01:29;7.60;99.90
21830;DHT22;11077;50.264;6.798;2023-04-16T11:03:58;7.60;99.90
21830;DHT22;11077;50.264;6.798;2023-04-16T11:06:28;7.60;99.90
21830;DHT22;11077;50.264;6.798;2023-04-16T11:08:56;7.60;99.90
21830;DHT22;11077;50.264;6.798;2023-04-16T11:11:24;7.60;99.90
21830;DHT22;11077;50.264;6.798;2023-04-16T11:13:55;7.60;99.90
21830;DHT22;11077;50.264;6.798;2023-04-16T11:16:23;7.60;99.90
21830;DHT22;11077;50.264;6.798;2023-04-16T11:18:52;7.60;99.90
21830;DHT22;11077;50.264;6.798;2023-04-16T11:21:19;7.60;99.90
21830;DHT22;11077;50.264;6.798;2023-04-16T11:23:51;7.60;99.90
21830;DHT22;11077;50.264;6.798;2023-04-16T11:26:26;7.50;99.90
21830;DHT22;11077;50.264;6.798;2023-04-16T11:28:56;7.50;99.90
21830;DHT22;11077;50.264;6.798;2023-04-16T11:31:25;7.50;99.90
21830;DHT22;11077;50.264;6.798;2023-04-16T11:33:54;7.50;99.90
21830;DHT22;11077;50.264;6.798;2023-04-16T11:36:21;7.50;99.90
21830;DHT22;11077;50.264;6.798;2023-04-16T11:38:49;7.50;99.90
21830;DHT22;11077;50.264;6.798;2023-04-16T11:41:19;7.50;99.90
21830;DHT22;11077;50.264;6.798;2023-04-16T11:43:47;7.40;99.90
21830;DHT22;11077;50.264;6.798;2023-04-16T11:46:16;7.40;99.90
21830;DHT22;11077;50.264;6.798;2023-04-16T11:48:47;7.40;99.90
21830;DHT22;11077;50.264;6.798;2023-04-16T11:51:15;7.40;99.90
21830;DHT22;11077;50.264;6.798;2023-04-16T11:53:46;7.40;99.90
21830;DHT22;11077;50.264;6.798;2023-04-16T11:56:14;7.40;99.90
21830;DHT22;11077;50.264;6.798;2023-04-16T11:58:42;7.40;99.90
21830;DHT22;11077;50.264;6.798;2023-04-16T12:01:10;7.40;99.90
21830;DHT22;11077;50.264;6.798;2023-04-16T12:03:40;7.40;99.90
21830;DHT22;11077;50.264;6.798;2023-04-16T12:06:10;7.40;99.90
21830;DHT22;11077;50.264;6.798;2023-04-16T12:08:37;7.50;99.90
21830;DHT22;11077;50.264;6.798;2023-04-16T12:11:04;7.50;99.90
21830;DHT22;11077;50.264;6.798;2023-04-16T12:13:32;7.50;99.90
21830;DHT22;11077;50.264;6.798;2023-04-16T12:16:17;7.50;99.90
21830;DHT22;11077;50.264;6.798;2023-04-16T12:19:00;7.50;99.90
21830;DHT22;11077;50.264;6.798;2023-04-16T12:21:36;7.50;99.90
21830;DHT22;11077;50.264;6.798;2023-04-16T12:24:04;7.50;99.90
21830;DHT22;11077;50.264;6.798;2023-04-16T12:26:39;7.50;99.90
21830;DHT22;11077;50.264;6.798;2023-04-16T12:29:20;7.50;99.90
21830;DHT22;11077;50.264;6.798;2023-04-16T12:31:49;7.60;99.90
21830;DHT22;11077;50.264;6.798;2023-04-16T12:34:18;7.60;99.90
21830;DHT22;11077;50.264;6.798;2023-04-16T12:36:47;7.50;99.90
21830;DHT22;11077;50.264;6.798;2023-04-16T12:39:15;7.60;99.90
21830;DHT22;11077;50.264;6.798;2023-04-16T12:41:43;7.50;99.90
21830;DHT22;11077;50.264;6.798;2023-04-16T12:44:15;7.60;99.90
21830;DHT22;11077;50.264;6.798;2023-04-16T12:46:43;7.60;99.90
21830;DHT22;11077;50.264;6.798;2023-04-16T12:49:11;7.60;99.90
21830;DHT22;11077;50.264;6.798;2023-04-16T12:51:39;7.60;99.90
21830;DHT22;11077;50.264;6.798;2023-04-16T12:54:07;7.60;99.90
21830;DHT22;11077;50.264;6.798;2023-04-16T12:56:34;7.70;99.90
21830;DHT22;11077;50.264;6.798;2023-04-16T12:59:01;7.80;99.90
21830;DHT22;11077;50.264;6.798;2023-04-16T13:01:28;8.00;99.90
21830;DHT22;11077;50.264;6.798;2023-04-16T13:03:56;8.20;99.90
21830;DHT22;11077;50.264;6.798;2023-04-16T13:06:23;8.30;99.90
21830;DHT22;11077;50.264;6.798;2023-04-16T13:08:52;8.40;99.90
21830;DHT22;11077;50.264;6.798;2023-04-16T13:11:19;8.50;99.90
21830;DHT22;11077;50.264;6.798;2023-04-16T13:13:46;8.40;99.90
21830;DHT22;11077;50.264;6.798;2023-04-16T13:16:13;8.50;99.90
21830;DHT22;11077;50.264;6.798;2023-04-16T13:18:41;8.60;99.90
21830;DHT22;11077;50.264;6.798;2023-04-16T13:21:08;8.60;99.90
21830;DHT22;11077;50.264;6.798;2023-04-16T13:23:35;8.70;99.90
21830;DHT22;11077;50.264;6.798;2023-04-16T13:26:04;8.80;99.90
21830;DHT22;11077;50.264;6.798;2023-04-16T13:28:31;8.80;99.90
21830;DHT22;11077;50.264;6.798;2023-04-16T13:30:58;8.80;99.90
21830;DHT22;11077;50.264;6.798;2023-04-16T13:33:25;8.90;99.90
21830;DHT22;11077;50.264;6.798;2023-04-16T13:35:53;8.80;99.90
21830;DHT22;11077;50.264;6.798;2023-04-16T13:38:20;8.80;99.90
21830;DHT22;11077;50.264;6.798;2023-04-16T13:40:47;8.80;99.90
21830;DHT22;11077;50.264;6.798;2023-04-16T13:43:16;8.80;99.90
21830;DHT22;11077;50.264;6.798;2023-04-16T13:45:44;8.80;99.90
21830;DHT22;11077;50.264;6.798;2023-04-16T13:48:11;8.80;99.90
21830;DHT22;11077;50.264;6.798;2023-04-16T13:50:38;8.90;99.90
21830;DHT22;11077;50.264;6.798;2023-04-16T13:53:05;9.00;99.90
21830;DHT22;11077;50.264;6.798;2023-04-16T13:55:32;9.00;99.90
21830;DHT22;11077;50.264;6.798;2023-04-16T13:58:00;9.10;99.90
21830;DHT22;11077;50.264;6.798;2023-04-16T14:00:29;9.20;99.90
21830;DHT22;11077;50.264;6.798;2023-04-16T14:02:56;9.20;99.90
21830;DHT22;11077;50.264;6.798;2023-04-16T14:05:23;9.30;99.90
21830;DHT22;11077;50.264;6.798;2023-04-16T14:07:51;9.40;99.90
21830;DHT22;11077;50.264;6.798;2023-04-16T14:10:18;9.60;99.90
21830;DHT22;11077;50.264;6.798;2023-04-16T14:12:46;9.70;99.90
21830;DHT22;11077;50.264;6.798;2023-04-16T14:15:13;9.70;99.90
21830;DHT22;11077;50.264;6.798;2023-04-16T14:17:42;9.70;99.90
21830;DHT22;11077;50.264;6.798;2023-04-16T14:20:11;9.70;99.90
21830;DHT22;11077;50.264;6.798;2023-04-16T14:22:38;9.80;99.90
21830;DHT22;11077;50.264;6.798;2023-04-16T14:25:07;9.90;99.90
21830;DHT22;11077;50.264;6.798;2023-04-16T14:27:34;9.80;99.90
21830;DHT22;11077;50.264;6.798;2023-04-16T14:30:02;9.80;99.90
21830;DHT22;11077;50.264;6.798;2023-04-16T14:32:29;10.00;99.90
21830;DHT22;11077;50.264;6.798;2023-04-16T14:34:57;10.10;99.90
21830;DHT22;11077;50.264;6.798;2023-04-16T14:37:25;10.20;99.90
21830;DHT22;11077;50.264;6.798;2023-04-16T14:39:53;10.30;99.90
21830;DHT22;11077;50.264;6.798;2023-04-16T14:42:21;10.20;99.90
21830;DHT22;11077;50.264;6.798;2023-04-16T14:44:52;10.20;99.90
21830;DHT22;11077;50.264;6.798;2023-04-16T14:47:24;10.20;99.90
21830;DHT22;11077;50.264;6.798;2023-04-16T14:49:52;10.30;99.90
21830;DHT22;11077;50.264;6.798;2023-04-16T14:52:21;10.30;99.90
21830;DHT22;11077;50.264;6.798;2023-04-16T14:54:48;10.40;99.90
21830;DHT22;11077;50.264;6.798;2023-04-16T14:57:17;10.40;99.90
21830;DHT22;11077;50.264;6.798;2023-04-16T14:59:44;10.40;99.90
21830;DHT22;11077;50.264;6.798;2023-04-16T15:02:14;10.40;99.90
21830;DHT22;11077;50.264;6.798;2023-04-16T15:04:42;10.30;99.90
21830;DHT22;11077;50.264;6.798;2023-04-16T15:07:10;10.30;99.90
21830;DHT22;11077;50.264;6.798;2023-04-16T15:09:39;10.20;99.90
21830;DHT22;11077;50.264;6.798;2023-04-16T15:12:19;10.20;99.90
21830;DHT22;11077;50.264;6.798;2023-04-16T15:14:46;10.10;99.90
21830;DHT22;11077;50.264;6.798;2023-04-16T15:17:13;10.20;99.90
21830;DHT22;11077;50.264;6.798;2023-04-16T15:19:41;10.20;99.90
21830;DHT22;11077;50.264;6.798;2023-04-16T15:22:08;10.30;99.90
21830;DHT22;11077;50.264;6.798;2023-04-16T15:24:36;10.30;99.90
21830;DHT22;11077;50.264;6.798;2023-04-16T15:27:04;10.30;99.90
21830;DHT22;11077;50.264;6.798;2023-04-16T15:29:34;10.20;99.90
21830;DHT22;11077;50.264;6.798;2023-04-16T15:32:05;10.20;99.90
21830;DHT22;11077;50.264;6.798;2023-04-16T15:34:33;10.10;99.90
21830;DHT22;11077;50.264;6.798;2023-04-16T15:37:01;10.00;99.90
21830;DHT22;11077;50.264;6.798;2023-04-16T15:39:31;9.90;99.90
21830;DHT22;11077;50.264;6.798;2023-04-16T15:41:59;9.70;99.90
21830;DHT22;11077;50.264;6.798;2023-04-16T15:44:32;9.60;99.90
21830;DHT22;11077;50.264;6.798;2023-04-16T15:46:59;9.50;99.90
21830;DHT22;11077;50.264;6.798;2023-04-16T15:49:27;9.50;99.90
21830;DHT22;11077;50.264;6.798;2023-04-16T15:51:54;9.40;99.90
21830;DHT22;11077;50.264;6.798;2023-04-16T15:54:22;9.30;99.90